Lucky Maccamp, Wyoming
Current Conditions -  °F | °C
As of 2:53 PM on Saturday 25 Oct 2014 (Local Time) from KLND Reporting Station
Clear Clear  
Wind Chill: 70°   Ceiling: Unl
Heat Index: 70°   Visibility: 10mi
Dew Point: 28°   Wind: 8mph
Humidity: 21%   Direction: 80°E
Pressure: 29.98"   Gusts: NA
Location:  43.1005°N, 108.934°W
Report Text: KLND 252053Z AUTO 08007KT 10SM CLR 21/M02 A2998 RMK AO2 SLP107 T02111022 56035 TSNO
Loading
Personal Weather Stations






























Interactive Weather Map
Tropical Storm Tracking
New forecast layout! Learn more

10-Day Weather Forecast

Advertisements
Track Severe Weather on mobile